createdAt,value
2017-08-04T00:01:11.310Z,100025.34
2017-08-04T00:03:38.700Z,100033.86
2017-08-04T00:06:06.100Z,100039.45
2017-08-04T00:08:33.527Z,100032.38
2017-08-04T00:11:00.923Z,100035.36
2017-08-04T00:13:28.331Z,100040.60
2017-08-04T00:15:55.736Z,100042.48
2017-08-04T00:18:23.132Z,100039.08
2017-08-04T00:20:50.532Z,100035.58
2017-08-04T00:23:17.942Z,100040.28
2017-08-04T00:25:45.339Z,100036.22
2017-08-04T00:28:12.734Z,100028.22
2017-08-04T00:30:40.151Z,100029.05
2017-08-04T00:33:07.549Z,100028.48
2017-08-04T00:35:34.958Z,100031.87
2017-08-04T00:38:02.382Z,100030.78
2017-08-04T00:40:29.774Z,100031.98
2017-08-04T00:42:57.180Z,100022.20
2017-08-04T00:45:24.593Z,100020.33
2017-08-04T00:47:51.992Z,100023.98
2017-08-04T00:50:19.395Z,100020.89
2017-08-04T00:52:46.811Z,100018.03
2017-08-04T00:55:14.218Z,100017.13
2017-08-04T00:57:41.616Z,100019.13
2017-08-04T01:00:09.026Z,100018.18
2017-08-04T01:02:36.436Z,100020.89
2017-08-04T01:05:03.831Z,100018.71
2017-08-04T01:07:31.250Z,100025.48
2017-08-04T01:09:58.647Z,100023.00
2017-08-04T01:12:26.051Z,100019.38
2017-08-04T01:14:53.470Z,100023.97
2017-08-04T01:17:20.900Z,100020.09
2017-08-04T01:19:48.306Z,100016.67
2017-08-04T01:22:15.719Z,100011.75
2017-08-04T01:24:43.124Z,100020.14
2017-08-04T01:27:10.532Z,100024.88
2017-08-04T01:29:37.954Z,100023.37
2017-08-04T01:32:05.351Z,100028.00
2017-08-04T01:34:32.751Z,100025.17
2017-08-04T01:37:00.164Z,100028.56
2017-08-04T01:39:27.564Z,100032.47
2017-08-04T01:41:54.960Z,100036.69
2017-08-04T01:44:22.418Z,100036.16
2017-08-04T01:46:49.823Z,100033.22
2017-08-04T01:49:17.227Z,100037.39
2017-08-04T01:51:44.644Z,100037.31
2017-08-04T01:54:12.043Z,100039.88
2017-08-04T01:56:39.447Z,100042.20
2017-08-04T01:59:06.858Z,100039.22
2017-08-04T02:01:34.259Z,100032.72
2017-08-04T02:04:01.656Z,100038.02
2017-08-04T02:06:29.083Z,100039.16
2017-08-04T02:08:56.483Z,100037.63
2017-08-04T02:11:23.887Z,100042.25
2017-08-04T02:13:51.299Z,100048.48
2017-08-04T02:16:18.695Z,100047.97
2017-08-04T02:18:46.095Z,100036.06
2017-08-04T02:21:13.511Z,100043.89
2017-08-04T02:23:40.907Z,100045.00
2017-08-04T02:26:08.312Z,100047.83
2017-08-04T02:28:35.928Z,100050.02
2017-08-04T02:31:03.334Z,100051.78
2017-08-04T02:33:30.731Z,100049.05
2017-08-04T02:35:58.151Z,100050.67
2017-08-04T02:38:25.552Z,100047.99
2017-08-04T02:40:52.947Z,100047.31
2017-08-04T02:43:20.363Z,100048.54
2017-08-04T02:45:47.772Z,100048.93
2017-08-04T02:48:15.172Z,100045.55
2017-08-04T02:50:42.580Z,100045.14
2017-08-04T02:53:09.983Z,100044.34
2017-08-04T02:55:37.382Z,100033.77
2017-08-04T02:58:04.807Z,100046.38
2017-08-04T03:00:32.210Z,100039.08
2017-08-04T03:02:59.623Z,100047.03
2017-08-04T03:05:27.035Z,100042.84
2017-08-04T03:07:54.435Z,100044.18
2017-08-04T03:10:21.831Z,100041.91
2017-08-04T03:12:49.251Z,100043.94
2017-08-04T03:15:16.656Z,100048.39
2017-08-04T03:17:44.060Z,100045.95
2017-08-04T03:20:11.503Z,100038.13
2017-08-04T03:22:38.912Z,100045.94
2017-08-04T03:25:06.312Z,100042.04
2017-08-04T03:27:34.030Z,100039.88
2017-08-04T03:30:01.426Z,100043.24
2017-08-04T03:32:28.824Z,100044.73
2017-08-04T03:34:56.267Z,100037.44
2017-08-04T03:37:23.672Z,100030.02
2017-08-04T03:39:51.069Z,100038.93
2017-08-04T03:42:18.480Z,100035.55
2017-08-04T03:44:45.883Z,100027.31
2017-08-04T03:47:13.282Z,100022.81
2017-08-04T03:49:40.703Z,100030.26
2017-08-04T03:52:08.113Z,100032.00
2017-08-04T03:54:35.514Z,100031.20
2017-08-04T03:57:03.071Z,100033.76
2017-08-04T03:59:30.465Z,100038.50
2017-08-04T04:01:57.856Z,100046.63
2017-08-04T04:04:25.262Z,100038.64
2017-08-04T04:06:52.661Z,100050.67
2017-08-04T04:09:20.063Z,100044.17
2017-08-04T04:11:47.480Z,100042.00
2017-08-04T04:14:14.879Z,100030.41
2017-08-04T04:16:42.340Z,100044.18
2017-08-04T04:19:09.752Z,100043.78
2017-08-04T04:21:37.151Z,100045.69
2017-08-04T04:24:04.547Z,100046.48
2017-08-04T04:26:31.972Z,100046.63
2017-08-04T04:28:59.364Z,100047.16
2017-08-04T04:31:26.758Z,100052.05
2017-08-04T04:33:54.170Z,100049.63
2017-08-04T04:36:21.561Z,100049.77
2017-08-04T04:38:48.955Z,100051.10
2017-08-04T04:41:16.362Z,100050.16
2017-08-04T04:43:43.754Z,100050.28
2017-08-04T04:46:11.151Z,100051.80
2017-08-04T04:48:38.564Z,100047.44
2017-08-04T04:51:05.955Z,100050.30
2017-08-04T04:53:33.351Z,100039.47
2017-08-04T04:56:00.754Z,100042.59
2017-08-04T04:58:28.160Z,100042.30
2017-08-04T05:00:55.564Z,100034.31
2017-08-04T05:03:22.972Z,100031.91
2017-08-04T05:05:50.359Z,100037.84
2017-08-04T05:08:17.757Z,100039.08
2017-08-04T05:10:45.172Z,100044.72
2017-08-04T05:13:12.568Z,100044.19
2017-08-04T05:15:40.099Z,100035.13
2017-08-04T05:18:08.594Z,100038.11
2017-08-04T05:20:36.015Z,100037.28
2017-08-04T05:23:03.414Z,100047.58
2017-08-04T05:25:30.826Z,100058.53
2017-08-04T05:27:58.218Z,100054.75
2017-08-04T05:30:25.607Z,100057.84
2017-08-04T05:32:53.015Z,100055.42
2017-08-04T05:35:20.407Z,100049.05
2017-08-04T05:37:47.805Z,100046.87
2017-08-04T05:40:15.206Z,100044.70
2017-08-04T05:42:42.604Z,100059.18
2017-08-04T05:45:10.001Z,100056.50
2017-08-04T05:47:37.399Z,100059.86
2017-08-04T05:50:04.791Z,100061.58
2017-08-04T05:52:32.186Z,100072.84
2017-08-04T05:54:59.613Z,100068.66
2017-08-04T05:57:27.003Z,100076.62
2017-08-04T05:59:54.400Z,100076.89
2017-08-04T06:02:21.804Z,100084.11
2017-08-04T06:04:49.191Z,100081.00
2017-08-04T06:07:16.588Z,100077.05
2017-08-04T06:09:43.985Z,100071.65
2017-08-04T06:12:11.389Z,100067.05
2017-08-04T06:14:38.789Z,100071.64
2017-08-04T06:17:06.211Z,100074.87
2017-08-04T06:19:33.605Z,100065.28
2017-08-04T06:22:00.999Z,100072.31
2017-08-04T06:24:28.408Z,100075.55
2017-08-04T06:26:55.800Z,100069.36
2017-08-04T06:29:23.187Z,100074.06
2017-08-04T06:31:50.603Z,100077.32
2017-08-04T06:34:17.987Z,100079.09
2017-08-04T06:36:45.964Z,100083.08
2017-08-04T06:39:13.431Z,100090.86
2017-08-04T06:41:40.840Z,100093.16
2017-08-04T06:44:08.231Z,100092.20
2017-08-04T06:46:35.650Z,100111.02
2017-08-04T06:49:14.750Z,100105.72
2017-08-04T06:52:08.507Z,100106.23
2017-08-04T06:54:47.679Z,100110.80
2017-08-04T06:57:21.459Z,100107.41
2017-08-04T06:59:48.859Z,100105.80
2017-08-04T07:02:16.248Z,100102.19
2017-08-04T07:04:43.665Z,100099.22
2017-08-04T07:07:11.050Z,100105.98
2017-08-04T07:09:38.465Z,100103.27
2017-08-04T07:12:05.858Z,100098.00
2017-08-04T07:14:33.260Z,100097.58
2017-08-04T07:17:00.696Z,100103.89
2017-08-04T07:19:28.183Z,100104.78
2017-08-04T07:21:55.576Z,100104.72
2017-08-04T07:24:23.774Z,100107.58
2017-08-04T07:26:51.188Z,100109.20
2017-08-04T07:29:18.579Z,100112.32
2017-08-04T07:31:45.973Z,100118.16
2017-08-04T07:34:14.375Z,100108.11
2017-08-04T07:36:41.767Z,100106.28
2017-08-04T07:39:09.979Z,100110.64
2017-08-04T07:41:37.384Z,100109.55
2017-08-04T07:44:06.764Z,100113.17
2017-08-04T07:46:34.155Z,100114.50
2017-08-04T07:49:01.556Z,100113.56
2017-08-04T07:51:28.947Z,100113.85
2017-08-04T07:53:56.335Z,100107.40
2017-08-04T07:56:23.747Z,100109.76
2017-08-04T07:58:51.154Z,100109.23
2017-08-04T08:01:18.543Z,100106.76
2017-08-04T08:03:45.956Z,100102.02
2017-08-04T08:06:13.343Z,100097.62
2017-08-04T08:08:40.727Z,100100.06
2017-08-04T08:11:08.142Z,100100.14
2017-08-04T08:13:35.541Z,100095.19
2017-08-04T08:16:02.936Z,100095.19
2017-08-04T08:18:30.339Z,100098.22
2017-08-04T08:20:57.731Z,100106.77
2017-08-04T08:23:25.130Z,100100.52
2017-08-04T08:25:52.535Z,100096.77
2017-08-04T08:28:19.934Z,100108.13
2017-08-04T08:30:47.331Z,100105.27
2017-08-04T08:33:14.747Z,100111.87
2017-08-04T08:35:42.148Z,100110.00
2017-08-04T08:38:09.544Z,100104.68
2017-08-04T08:40:36.953Z,100106.44
2017-08-04T08:43:04.339Z,100118.67
2017-08-04T08:45:31.737Z,100123.98
2017-08-04T08:47:59.149Z,100112.48
2017-08-04T08:50:26.547Z,100109.35
2017-08-04T08:52:53.945Z,100116.18
2017-08-04T08:55:21.364Z,100110.95
2017-08-04T08:57:48.753Z,100115.53
2017-08-04T09:00:16.144Z,100109.20
2017-08-04T09:02:43.560Z,100110.15
2017-08-04T09:05:10.957Z,100106.42
2017-08-04T09:07:38.356Z,100105.17
2017-08-04T09:10:05.760Z,100111.96
2017-08-04T09:12:33.155Z,100105.92
2017-08-04T09:15:00.548Z,100110.98
2017-08-04T09:17:27.956Z,100108.80
2017-08-04T09:19:55.356Z,100111.34
2017-08-04T09:22:22.769Z,100106.87
2017-08-04T09:24:50.167Z,100114.47
2017-08-04T09:27:17.564Z,100113.72
2017-08-04T09:29:44.960Z,100112.98
2017-08-04T09:32:12.384Z,100111.16
2017-08-04T09:34:39.781Z,100121.20
2017-08-04T09:37:07.177Z,100124.20
2017-08-04T09:39:34.585Z,100116.34
2017-08-04T09:42:01.996Z,100114.67
2017-08-04T09:44:29.400Z,100117.28
2017-08-04T09:46:56.800Z,100112.27
2017-08-04T09:49:24.195Z,100113.27
2017-08-04T09:51:51.588Z,100108.01
2017-08-04T09:54:19.071Z,100117.28
2017-08-04T09:56:46.476Z,100119.59
2017-08-04T09:59:13.883Z,100115.31
2017-08-04T10:01:41.320Z,100114.98
2017-08-04T10:04:08.710Z,100125.78
2017-08-04T10:06:36.108Z,100125.31
2017-08-04T10:09:03.520Z,100116.36
2017-08-04T10:11:30.911Z,100124.26
2017-08-04T10:13:58.324Z,100127.93
2017-08-04T10:16:25.741Z,100123.27
2017-08-04T10:18:53.136Z,100122.44
2017-08-04T10:21:20.541Z,100118.66
2017-08-04T10:23:47.950Z,100110.14
2017-08-04T10:26:15.354Z,100108.77
2017-08-04T10:28:42.744Z,100107.73
2017-08-04T10:31:10.160Z,100116.45
2017-08-04T10:33:37.551Z,100117.92
2017-08-04T10:36:04.952Z,100103.20
2017-08-04T10:38:32.351Z,100115.33
2017-08-04T10:40:59.747Z,100120.75
2017-08-04T10:43:27.135Z,100116.59
2017-08-04T10:45:54.539Z,100104.81
2017-08-04T10:48:21.935Z,100110.48
2017-08-04T10:50:49.326Z,100104.31
2017-08-04T10:53:16.739Z,100107.11
2017-08-04T10:55:44.126Z,100103.80
2017-08-04T10:58:11.521Z,100113.16
2017-08-04T11:00:38.929Z,100118.73
2017-08-04T11:03:06.322Z,100117.70
2017-08-04T11:05:33.712Z,100117.88
2017-08-04T11:08:01.124Z,100115.06
2017-08-04T11:10:28.523Z,100120.06
2017-08-04T11:12:55.910Z,100115.34
2017-08-04T11:15:23.315Z,100112.28
2017-08-04T11:17:50.702Z,100105.55
2017-08-04T11:20:18.096Z,100113.52
2017-08-04T11:22:45.502Z,100109.22
2017-08-04T11:25:12.903Z,100113.30
2017-08-04T11:27:40.291Z,100119.88
2017-08-04T11:30:08.013Z,100113.05
2017-08-04T11:32:35.403Z,100117.06
2017-08-04T11:35:02.794Z,100114.72
2017-08-04T11:37:30.203Z,100119.66
2017-08-04T11:39:57.603Z,100121.17
2017-08-04T11:42:25.007Z,100114.83
2017-08-04T11:44:52.407Z,100118.95
2017-08-04T11:47:19.805Z,100120.81
2017-08-04T11:49:47.192Z,100122.97
2017-08-04T11:52:14.599Z,100127.16
2017-08-04T11:54:41.993Z,100129.20
2017-08-04T11:57:09.384Z,100134.63
2017-08-04T11:59:36.804Z,100142.55
2017-08-04T12:02:04.191Z,100131.21
2017-08-04T12:04:31.587Z,100139.24
2017-08-04T12:06:58.995Z,100150.61
2017-08-04T12:09:26.387Z,100146.11
2017-08-04T12:11:53.784Z,100143.92
2017-08-04T12:14:22.027Z,100135.44
2017-08-04T12:16:49.422Z,100148.18
2017-08-04T12:19:16.819Z,100140.33
2017-08-04T12:21:44.222Z,100150.96
2017-08-04T12:24:11.642Z,100156.46
2017-08-04T12:26:39.037Z,100153.13
2017-08-04T12:29:06.447Z,100158.11
2017-08-04T12:31:33.844Z,100156.88
2017-08-04T12:34:01.248Z,100163.74
2017-08-04T12:36:28.660Z,100160.20
2017-08-04T12:38:56.054Z,100156.33
2017-08-04T12:41:23.457Z,100170.57
2017-08-04T12:43:50.868Z,100169.75
2017-08-04T12:46:18.259Z,100172.87
2017-08-04T12:48:45.655Z,100173.13
2017-08-04T12:51:13.063Z,100167.08
2017-08-04T12:53:40.460Z,100169.70
2017-08-04T12:56:07.868Z,100174.28
2017-08-04T12:58:35.283Z,100180.33
2017-08-04T13:01:02.692Z,100179.29
2017-08-04T13:03:30.080Z,100182.80
2017-08-04T13:05:57.492Z,100181.44
2017-08-04T13:08:24.887Z,100176.75
2017-08-04T13:10:52.284Z,100169.10
2017-08-04T13:13:19.693Z,100169.15
2017-08-04T13:15:47.087Z,100176.42
2017-08-04T13:18:14.482Z,100183.33
2017-08-04T13:20:41.893Z,100186.05
2017-08-04T13:23:09.288Z,100189.02
2017-08-04T13:25:36.681Z,100182.34
2017-08-04T13:28:04.095Z,100190.92
2017-08-04T13:30:31.493Z,100188.83
2017-08-04T13:32:58.886Z,100176.08
2017-08-04T13:35:26.299Z,100183.45
2017-08-04T13:37:53.692Z,100183.81
2017-08-04T13:40:21.087Z,100184.31
2017-08-04T13:42:48.499Z,100188.66
2017-08-04T13:45:15.896Z,100185.40
2017-08-04T13:47:43.295Z,100193.70
2017-08-04T13:50:10.707Z,100196.09
2017-08-04T13:52:38.111Z,100184.81
2017-08-04T13:55:05.507Z,100186.22
2017-08-04T13:57:32.915Z,100192.11
2017-08-04T14:00:00.344Z,100196.41
2017-08-04T14:02:28.465Z,100187.05
2017-08-04T14:04:55.900Z,100190.81
2017-08-04T14:07:23.339Z,100183.95
2017-08-04T14:09:50.788Z,100185.89
2017-08-04T14:12:18.284Z,100188.91
2017-08-04T14:14:45.960Z,100192.58
2017-08-04T14:17:13.926Z,100186.75
2017-08-04T14:19:41.379Z,100188.25
2017-08-04T14:22:08.797Z,100190.68
2017-08-04T14:24:36.269Z,100188.02
2017-08-04T14:27:04.727Z,100203.78
2017-08-04T14:29:33.128Z,100197.15
2017-08-04T14:32:00.525Z,100203.02
2017-08-04T14:34:27.928Z,100205.16
2017-08-04T14:36:55.363Z,100193.95
2017-08-04T14:39:22.776Z,100195.02
2017-08-04T14:41:50.216Z,100192.61
2017-08-04T14:44:17.634Z,100196.10
2017-08-04T14:46:45.017Z,100183.49
2017-08-04T14:49:12.492Z,100194.94
2017-08-04T14:51:39.988Z,100206.98
2017-08-04T14:54:07.395Z,100197.59
2017-08-04T14:56:34.835Z,100197.17
2017-08-04T14:59:02.272Z,100195.56
2017-08-04T15:01:29.677Z,100187.66
2017-08-04T15:03:57.084Z,100192.59
2017-08-04T15:06:24.497Z,100185.27
2017-08-04T15:08:51.936Z,100191.80
2017-08-04T15:11:19.343Z,100190.23
2017-08-04T15:13:46.784Z,100188.66
2017-08-04T15:16:14.192Z,100186.22
2017-08-04T15:18:41.662Z,100194.19
2017-08-04T15:21:09.035Z,100192.13
2017-08-04T15:23:36.439Z,100193.42
2017-08-04T15:26:03.871Z,100193.30
2017-08-04T15:28:31.270Z,100189.34
2017-08-04T15:30:58.691Z,100190.20
2017-08-04T15:33:27.535Z,100191.42
2017-08-04T15:35:56.232Z,100192.74
2017-08-04T15:38:23.650Z,100193.02
2017-08-04T15:40:51.316Z,100194.86
2017-08-04T15:43:18.751Z,100198.47
2017-08-04T15:45:46.183Z,100194.53
2017-08-04T15:48:14.464Z,100190.41
2017-08-04T15:50:41.908Z,100198.00
2017-08-04T15:53:09.335Z,100193.53
2017-08-04T15:55:36.867Z,100192.32
2017-08-04T15:58:05.284Z,100189.56
2017-08-04T16:00:32.720Z,100184.14
2017-08-04T16:03:00.126Z,100180.92
2017-08-04T16:05:28.480Z,100184.09
2017-08-04T16:07:56.620Z,100182.69
2017-08-04T16:10:24.024Z,100184.70
2017-08-04T16:12:51.440Z,100177.98
2017-08-04T16:15:18.820Z,100184.03
2017-08-04T16:17:46.283Z,100185.38
2017-08-04T16:20:13.672Z,100197.66
2017-08-04T16:22:41.067Z,100186.09
2017-08-04T16:25:08.477Z,100189.80
2017-08-04T16:27:35.863Z,100194.80
2017-08-04T16:30:03.246Z,100187.89
2017-08-04T16:32:30.654Z,100191.55
2017-08-04T16:34:58.044Z,100195.32
2017-08-04T16:37:25.439Z,100195.51
2017-08-04T16:39:52.851Z,100195.51
2017-08-04T16:42:20.239Z,100199.21
2017-08-04T16:44:47.631Z,100199.71
2017-08-04T16:47:15.038Z,100203.27
2017-08-04T16:49:42.437Z,100195.95
2017-08-04T16:52:09.836Z,100193.67
2017-08-04T16:54:37.242Z,100202.53
2017-08-04T16:57:04.645Z,100205.33
2017-08-04T16:59:32.035Z,100203.52
2017-08-04T17:01:59.439Z,100203.39
2017-08-04T17:04:26.831Z,100202.13
2017-08-04T17:06:54.224Z,100201.62
2017-08-04T17:09:21.628Z,100198.80
2017-08-04T17:11:49.015Z,100213.12
2017-08-04T17:14:16.408Z,100200.64
2017-08-04T17:16:43.823Z,100201.34
2017-08-04T17:19:11.213Z,100202.23
2017-08-04T17:21:38.603Z,100208.33
2017-08-04T17:24:06.004Z,100211.13
2017-08-04T17:26:33.398Z,100207.00
2017-08-04T17:29:00.792Z,100211.35
2017-08-04T17:31:28.206Z,100210.84
2017-08-04T17:33:55.582Z,100216.29
2017-08-04T17:36:22.974Z,100207.84
2017-08-04T17:38:50.380Z,100212.39
2017-08-04T17:41:17.771Z,100204.56
2017-08-04T17:43:45.169Z,100212.27
2017-08-04T17:46:12.576Z,100216.47
2017-08-04T17:48:39.971Z,100219.45
2017-08-04T17:51:07.360Z,100217.70
2017-08-04T17:53:34.767Z,100224.70
2017-08-04T17:56:02.166Z,100226.78
2017-08-04T17:58:35.574Z,100228.11
2017-08-04T18:01:02.969Z,100229.91
2017-08-04T18:03:30.359Z,100232.38
2017-08-04T18:05:57.763Z,100239.80
2017-08-04T18:08:25.164Z,100238.61
2017-08-04T18:10:52.558Z,100236.16
2017-08-04T18:13:19.966Z,100235.27
2017-08-04T18:15:47.359Z,100233.70
2017-08-04T18:18:14.750Z,100235.33
2017-08-04T18:20:42.156Z,100238.99
2017-08-04T18:23:10.074Z,100236.03
2017-08-04T18:25:38.523Z,100245.79
2017-08-04T18:28:05.928Z,100234.84
2017-08-04T18:30:34.271Z,100237.00
2017-08-04T18:33:02.499Z,100241.98
2017-08-04T18:35:29.903Z,100238.09
2017-08-04T18:37:57.294Z,100242.97
2017-08-04T18:40:24.688Z,100244.20
2017-08-04T18:42:52.123Z,100241.57
2017-08-04T18:45:19.514Z,100246.92
2017-08-04T18:47:47.579Z,100240.54
2017-08-04T18:50:15.020Z,100234.16
2017-08-04T18:52:42.744Z,100240.35
2017-08-04T18:55:10.182Z,100237.98
2017-08-04T18:57:37.578Z,100237.98
2017-08-04T19:00:04.980Z,100242.72
2017-08-04T19:02:32.416Z,100239.92
2017-08-04T19:04:59.915Z,100242.44
2017-08-04T19:07:27.755Z,100239.32
2017-08-04T19:09:55.304Z,100239.58
2017-08-04T19:12:22.875Z,100234.22
2017-08-04T19:14:50.506Z,100237.41
2017-08-04T19:17:17.930Z,100240.87
2017-08-04T19:19:45.371Z,100238.95
2017-08-04T19:22:13.017Z,100241.79
2017-08-04T19:24:40.778Z,100247.25
2017-08-04T19:27:08.515Z,100244.69
2017-08-04T19:29:36.883Z,100248.88
2017-08-04T19:32:05.025Z,100251.66
2017-08-04T19:34:32.853Z,100253.27
2017-08-04T19:37:02.969Z,100255.31
2017-08-04T19:39:30.871Z,100265.17
2017-08-04T19:41:58.933Z,100271.02
2017-08-04T19:44:26.384Z,100275.25
2017-08-04T19:46:53.791Z,100275.51
2017-08-04T19:49:21.223Z,100276.71
2017-08-04T19:51:48.639Z,100274.16
2017-08-04T19:54:16.069Z,100272.16
2017-08-04T19:56:43.471Z,100274.58
2017-08-04T19:59:10.887Z,100270.41
2017-08-04T20:01:38.286Z,100270.19
2017-08-04T20:04:05.706Z,100265.08
2017-08-04T20:06:33.144Z,100269.03
2017-08-04T20:09:00.557Z,100278.88
2017-08-04T20:11:27.978Z,100270.25
2017-08-04T20:13:55.424Z,100277.19
2017-08-04T20:16:22.820Z,100270.59
2017-08-04T20:18:50.316Z,100273.91
2017-08-04T20:21:17.712Z,100273.26
2017-08-04T20:23:45.124Z,100281.31
2017-08-04T20:26:12.564Z,100288.50
2017-08-04T20:28:39.975Z,100282.39
2017-08-04T20:31:07.360Z,100285.38
2017-08-04T20:33:34.800Z,100283.08
2017-08-04T20:36:02.203Z,100283.50
2017-08-04T20:38:29.592Z,100278.09
2017-08-04T20:40:57.013Z,100277.69
2017-08-04T20:43:25.459Z,100285.51
2017-08-04T20:45:52.935Z,100275.50
2017-08-04T20:48:20.367Z,100282.67
2017-08-04T20:50:47.787Z,100273.20
2017-08-04T20:53:15.217Z,100281.88
2017-08-04T20:55:42.663Z,100274.83
2017-08-04T20:58:10.089Z,100271.05
2017-08-04T21:00:37.473Z,100277.41
2017-08-04T21:03:04.916Z,100279.02
2017-08-04T21:05:32.301Z,100282.69
2017-08-04T21:07:59.746Z,100278.09
2017-08-04T21:10:27.145Z,100276.05
2017-08-04T21:12:54.555Z,100282.41
2017-08-04T21:15:21.979Z,100281.05
2017-08-04T21:17:49.647Z,100280.89
2017-08-04T21:20:17.060Z,100278.05
2017-08-04T21:22:44.469Z,100273.59
2017-08-04T21:25:11.903Z,100275.42
2017-08-04T21:27:39.291Z,100274.62
2017-08-04T21:30:06.711Z,100276.77
2017-08-04T21:32:34.142Z,100272.30
2017-08-04T21:35:01.531Z,100273.27
2017-08-04T21:37:28.941Z,100275.30
2017-08-04T21:39:56.363Z,100281.16
2017-08-04T21:42:23.763Z,100279.54
2017-08-04T21:44:51.189Z,100276.70
2017-08-04T21:47:18.589Z,100276.86
2017-08-04T21:49:46.043Z,100284.17
2017-08-04T21:52:13.453Z,100271.72
2017-08-04T21:54:40.887Z,100275.24
2017-08-04T21:57:12.690Z,100274.81
2017-08-04T21:59:40.108Z,100275.25
2017-08-04T22:02:07.540Z,100268.62
2017-08-04T22:04:34.945Z,100267.79
2017-08-04T22:07:02.372Z,100272.81
2017-08-04T22:09:29.762Z,100275.91
2017-08-04T22:11:57.175Z,100275.21
2017-08-04T22:14:24.605Z,100268.19
2017-08-04T22:16:52.020Z,100264.48
2017-08-04T22:19:19.423Z,100260.16
2017-08-04T22:21:46.840Z,100264.34
2017-08-04T22:24:14.253Z,100262.86
2017-08-04T22:26:41.652Z,100262.03
2017-08-04T22:29:09.140Z,100259.59
2017-08-04T22:31:36.544Z,100261.05
2017-08-04T22:34:03.960Z,100268.62
2017-08-04T22:36:31.404Z,100275.00
2017-08-04T22:38:58.864Z,100271.20
2017-08-04T22:41:26.287Z,100279.34
2017-08-04T22:43:53.707Z,100276.52
2017-08-04T22:46:21.139Z,100281.94
2017-08-04T22:48:48.547Z,100284.94
2017-08-04T22:51:15.990Z,100280.52
2017-08-04T22:53:43.407Z,100279.16
2017-08-04T22:56:10.843Z,100276.72
2017-08-04T22:58:38.303Z,100278.59
2017-08-04T23:01:05.693Z,100274.83
2017-08-04T23:03:33.117Z,100267.52
2017-08-04T23:06:00.530Z,100269.35
2017-08-04T23:08:27.933Z,100272.69
2017-08-04T23:10:55.340Z,100270.92
2017-08-04T23:13:22.799Z,100274.27
2017-08-04T23:15:50.203Z,100270.41
2017-08-04T23:18:17.627Z,100271.78
2017-08-04T23:20:45.039Z,100273.92
2017-08-04T23:23:12.495Z,100272.47
2017-08-04T23:25:39.883Z,100262.88
2017-08-04T23:28:07.324Z,100256.67
2017-08-04T23:30:34.734Z,100265.30
2017-08-04T23:33:02.167Z,100264.88
2017-08-04T23:35:29.575Z,100265.31
2017-08-04T23:37:57.002Z,100268.83
2017-08-04T23:40:24.440Z,100270.73
2017-08-04T23:42:51.851Z,100276.03
2017-08-04T23:45:19.266Z,100275.77
2017-08-04T23:47:46.719Z,100272.13
2017-08-04T23:50:14.131Z,100279.98
2017-08-04T23:52:41.547Z,100274.31
2017-08-04T23:55:09.035Z,100273.66
2017-08-04T23:57:36.431Z,100269.86
